Cloquet, MN

5:30 PM CST on February 08, 2016 (GMT -0600)
Cloquet Carlton County

Weather History for KCOQ - June, 2013

Change the Weather History Date:

Tuesday, June 18, 2013

  Actual Average Record
Temperature  
Mean Temperature 50 °F -  
Max Temperature 68 °F 68 °F 78 °F (2012)
Min Temperature 33 °F 48 °F 33 °F (2013)
Degree Days  
Heating Degree Days 14    
Moisture  
Dew Point 31 °F    
Average Humidity 49    
Maximum Humidity 87    
Minimum Humidity 24    
Precipitation  
Precipitation 0.06 in - - ()
Sea Level Pressure  
Sea Level Pressure 30.11 in    
Wind  
Wind Speed 3 mph (East)    
Max Wind Speed 13 mph    
Max Gust Speed 18 mph    
Visibility 10 miles    
Events      
Averages and records for this station are not official NWS values.
T = Trace of Precipitation, MM = Missing Value Source: NWS Daily Summary

Daily Weather History Graph

Daily Weather History Graph

Search for Another Location

Airport or City:

Trip Planner

Search our weather history database for the weather conditions in past years. The results will help you decide how hot, cold, wet, or windy it might be!

Date:

Astronomy

Jun. 18, 2013 Rise Set
Actual Time 5:15 AM CDT 9:06 PM CDT
Civil Twilight 4:36 AM CDT 9:46 PM CDT
Nautical Twilight 3:42 AM CDT 10:40 PM CDT
Astronomical Twilight 2:23 AM CDT 11:59 PM CDT
Moon 3:37 PM CDT (6/18) 1:41 AM CDT (6/18)
Length of Visible Light 17h 09m
Length of Day
15h 51m
Waxing Gibbous, 71% of the Moon is Illuminated
Jun 18
Waxing Gibbous
Jun 23
Full
Jun 29
Last Quarter
Jul 8
New
Jul 15
First Quarter

Hourly Weather History & Observations

Time (CDT) Temp. Windchill Dew Point Humidity Pressure Visibility Wind Dir Wind Speed Gust Speed Precip Events Conditions
12:16 AM 39.2 °F - 33.8 °F 81% 30.10 in 10.0 mi Calm Calm - N/A   Clear
12:36 AM 41.0 °F - 32.0 °F 70% 30.11 in 10.0 mi Calm Calm - N/A   Clear
12:55 AM 39.2 °F - 32.0 °F 75% 30.11 in 10.0 mi Calm Calm - N/A   Clear
1:16 AM 37.4 °F - 33.8 °F 87% 30.11 in 10.0 mi Calm Calm - N/A   Clear
1:36 AM 37.4 °F - 33.8 °F 87% 30.11 in 10.0 mi Calm Calm - N/A   Clear
1:56 AM 39.2 °F - 33.8 °F 81% 30.11 in 10.0 mi Calm Calm - N/A   Clear
2:15 AM 37.4 °F - 32.0 °F 81% 30.11 in 10.0 mi Calm Calm - N/A   Clear
2:36 AM 35.6 °F - 32.0 °F 87% 30.11 in 10.0 mi Calm Calm - N/A   Clear
2:56 AM 35.6 °F - 32.0 °F 87% 30.12 in 10.0 mi Calm Calm - N/A   Clear
3:15 AM 35.6 °F - 32.0 °F 87% 30.12 in 10.0 mi Calm Calm - N/A   Clear
3:36 AM 35.6 °F - 30.2 °F 81% 30.12 in 10.0 mi Calm Calm - N/A   Clear
3:56 AM 35.6 °F 32.8 °F 32.0 °F 87% 30.11 in 10.0 mi NNW 3.5 mph - N/A   Clear
4:15 AM 35.6 °F 32.8 °F 30.2 °F 81% 30.11 in 10.0 mi NNW 3.5 mph - N/A   Clear
4:36 AM 35.6 °F - 30.2 °F 81% 30.12 in 10.0 mi Calm Calm - N/A   Clear
4:56 AM 35.6 °F - 32.0 °F 87% 30.12 in 10.0 mi Calm Calm - N/A   Clear
5:16 AM 33.8 °F 30.8 °F 30.2 °F 87% 30.13 in 10.0 mi NNW 3.5 mph - N/A   Clear
5:36 AM 33.8 °F - 30.2 °F 87% 30.13 in 10.0 mi Calm Calm - N/A   Clear
5:55 AM 35.6 °F - 32.0 °F 87% 30.14 in 10.0 mi Calm Calm - N/A   Clear
6:16 AM 37.4 °F - 33.8 °F 87% 30.15 in 10.0 mi Calm Calm - N/A   Clear
6:36 AM 39.2 °F - 35.6 °F 87% 30.15 in 10.0 mi Calm Calm - N/A   Clear
6:55 AM 44.6 °F - 37.4 °F 76% 30.15 in 10.0 mi Calm Calm - N/A   Clear
7:16 AM 46.4 °F 45.2 °F 33.8 °F 62% 30.15 in 10.0 mi East 3.5 mph - N/A   Clear
7:36 AM 46.4 °F 44.3 °F 32.0 °F 57% 30.15 in 10.0 mi East 4.6 mph - N/A   Clear
7:55 AM 48.2 °F - 32.0 °F 54% 30.16 in 10.0 mi East 5.8 mph - N/A   Clear
8:16 AM 51.8 °F - 33.8 °F 50% 30.16 in 10.0 mi East 5.8 mph - N/A   Clear
8:36 AM 53.6 °F - 35.6 °F 51% 30.17 in 10.0 mi ESE 5.8 mph - N/A   Clear
8:56 AM 55.4 °F - 33.8 °F 44% 30.17 in 10.0 mi East 5.8 mph - N/A   Clear
9:15 AM 55.4 °F - 30.2 °F 38% 30.17 in 10.0 mi East 10.4 mph - N/A   Clear
9:36 AM 57.2 °F - 30.2 °F 36% 30.16 in 10.0 mi East 10.4 mph - N/A   Clear
9:56 AM 59.0 °F - 30.2 °F 34% 30.16 in 10.0 mi East 6.9 mph - N/A   Clear
10:15 AM 60.8 °F - 33.8 °F 36% 30.16 in 10.0 mi East 8.1 mph - N/A   Clear
10:36 AM 62.6 °F - 32.0 °F 32% 30.16 in 10.0 mi ESE 5.8 mph - N/A   Clear
10:56 AM 62.6 °F - 32.0 °F 32% 30.15 in - ESE 10.4 mph 16.1 mph N/A   Clear
11:15 AM 62.6 °F - 30.2 °F 30% 30.15 in 10.0 mi ENE 10.4 mph - 0.06 in   Clear
11:36 AM 62.6 °F - 30.2 °F 30% 30.15 in 10.0 mi East 9.2 mph - N/A   Unknown
11:56 AM 62.6 °F - 28.4 °F 27% 30.15 in 10.0 mi ESE 9.2 mph 16.1 mph N/A   Clear
12:15 PM - - - N/A% 30.15 in - East 6.9 mph - N/A   Unknown
12:36 PM 64.4 °F - 30.2 °F 28% 30.14 in 10.0 mi East 12.7 mph 16.1 mph N/A   Clear
12:56 PM 66.2 °F - 30.2 °F 26% 30.14 in 10.0 mi East 11.5 mph 18.4 mph N/A   Clear
1:15 PM 66.2 °F - 32.0 °F 28% 30.13 in 10.0 mi ESE 10.4 mph - N/A   Clear
1:36 PM 66.2 °F - 33.8 °F 30% 30.13 in 10.0 mi SE 6.9 mph - N/A   Clear
1:56 PM 66.2 °F - 33.8 °F 30% 30.12 in 10.0 mi SE 6.9 mph - N/A   Clear
2:16 PM 66.2 °F - 32.0 °F 28% 30.12 in 10.0 mi ESE 6.9 mph - N/A   Clear
2:36 PM 66.2 °F - 32.0 °F 28% 30.12 in 10.0 mi ESE 6.9 mph - N/A   Clear
2:55 PM 66.2 °F - 32.0 °F 28% 30.11 in 10.0 mi ENE 6.9 mph - N/A   Clear
3:16 PM 68.0 °F - 33.8 °F 28% 30.11 in 10.0 mi East 10.4 mph - N/A   Clear
3:36 PM 68.0 °F - 33.8 °F 28% 30.11 in 10.0 mi East 6.9 mph - N/A   Clear
3:55 PM 68.0 °F - 33.8 °F 28% 30.10 in 10.0 mi Calm Calm - N/A   Clear
4:16 PM 68.0 °F - 33.8 °F 28% 30.09 in 10.0 mi East 9.2 mph - N/A   Clear
4:36 PM 68.0 °F - 32.0 °F 26% 30.09 in 10.0 mi ESE 9.2 mph - N/A   Clear
4:55 PM 68.0 °F - 33.8 °F 28% 30.08 in 10.0 mi East 6.9 mph - N/A   Clear
5:16 PM 68.0 °F - 30.2 °F 24% 30.09 in 10.0 mi ENE 8.1 mph - N/A   Clear
5:36 PM 68.0 °F - 30.2 °F 24% 30.08 in 10.0 mi ENE 8.1 mph - N/A   Clear
5:55 PM 68.0 °F - 30.2 °F 24% 30.08 in 10.0 mi East 6.9 mph - N/A   Clear
6:16 PM 66.2 °F - 28.4 °F 24% 30.07 in 10.0 mi ESE 5.8 mph - N/A   Clear
6:36 PM 66.2 °F - 28.4 °F 24% 30.07 in 10.0 mi East 10.4 mph - N/A   Clear
6:56 PM 64.4 °F - 26.6 °F 24% 30.08 in 10.0 mi East 9.2 mph - N/A   Clear
7:16 PM 64.4 °F - 28.4 °F 26% 30.08 in 10.0 mi ESE 6.9 mph - N/A   Clear
7:36 PM 62.6 °F - 28.4 °F 27% 30.08 in 10.0 mi East 8.1 mph - N/A   Clear
7:55 PM 62.6 °F - 28.4 °F 27% 30.08 in 10.0 mi East 5.8 mph - N/A   Clear
8:16 PM 60.8 °F - 28.4 °F 29% 30.08 in 10.0 mi East 3.5 mph - N/A   Clear
8:36 PM 59.0 °F - 28.4 °F 31% 30.08 in 10.0 mi East 3.5 mph - N/A   Clear
8:55 PM 57.2 °F - 28.4 °F 33% 30.07 in 10.0 mi East 3.5 mph - N/A   Clear
9:16 PM 57.2 °F - 30.2 °F 36% 30.07 in 10.0 mi Calm Calm - N/A   Clear
9:36 PM 55.4 °F - 30.2 °F 38% 30.08 in 10.0 mi Calm Calm - N/A   Clear
9:55 PM 53.6 °F - 30.2 °F 41% 30.08 in 10.0 mi Calm Calm - N/A   Clear
10:16 PM 53.6 °F - 30.2 °F 41% 30.08 in 10.0 mi East 3.5 mph - N/A   Clear
10:36 PM 53.6 °F - 30.2 °F 41% 30.07 in 10.0 mi East 3.5 mph - N/A   Clear
10:55 PM 53.6 °F - 30.2 °F 41% 30.07 in 10.0 mi Calm Calm - N/A   Clear
11:16 PM 53.6 °F - 30.2 °F 41% 30.07 in 10.0 mi Calm Calm - N/A   Clear
11:36 PM 51.8 °F - 30.2 °F 44% 30.07 in 10.0 mi Calm Calm - N/A   Clear
11:56 PM 50.0 °F - 33.8 °F 54% 30.07 in 10.0 mi Calm Calm - N/A   Clear